sensor_id;sensor_type;location;lat;lon;timestamp;P1;durP1;ratioP1;P2;durP2;ratioP2
3133;SDS011;1577;49.912;10.924;2023-05-10T00:01:11;3.63;;;2.57;;
3133;SDS011;1577;49.912;10.924;2023-05-10T00:03:36;5.77;;;2.23;;
3133;SDS011;1577;49.912;10.924;2023-05-10T00:06:02;3.97;;;2.73;;
3133;SDS011;1577;49.912;10.924;2023-05-10T00:08:27;3.33;;;2.03;;
3133;SDS011;1577;49.912;10.924;2023-05-10T00:10:53;4.03;;;2.90;;
3133;SDS011;1577;49.912;10.924;2023-05-10T00:13:19;4.17;;;2.73;;
3133;SDS011;1577;49.912;10.924;2023-05-10T00:15:44;3.63;;;2.40;;
3133;SDS011;1577;49.912;10.924;2023-05-10T00:18:10;3.90;;;2.50;;
3133;SDS011;1577;49.912;10.924;2023-05-10T00:20:36;4.20;;;2.47;;
3133;SDS011;1577;49.912;10.924;2023-05-10T00:23:01;10.13;;;2.60;;
3133;SDS011;1577;49.912;10.924;2023-05-10T00:25:27;3.27;;;2.47;;
3133;SDS011;1577;49.912;10.924;2023-05-10T00:27:52;4.37;;;2.57;;
3133;SDS011;1577;49.912;10.924;2023-05-10T00:30:20;6.00;;;2.77;;
3133;SDS011;1577;49.912;10.924;2023-05-10T00:32:45;4.10;;;2.70;;
3133;SDS011;1577;49.912;10.924;2023-05-10T00:35:13;3.63;;;2.40;;
3133;SDS011;1577;49.912;10.924;2023-05-10T00:37:38;3.93;;;2.83;;
3133;SDS011;1577;49.912;10.924;2023-05-10T00:40:04;4.00;;;2.63;;
3133;SDS011;1577;49.912;10.924;2023-05-10T00:42:31;4.27;;;3.10;;
3133;SDS011;1577;49.912;10.924;2023-05-10T00:44:56;6.50;;;2.80;;
3133;SDS011;1577;49.912;10.924;2023-05-10T00:47:22;5.80;;;3.03;;
3133;SDS011;1577;49.912;10.924;2023-05-10T00:49:48;5.30;;;2.90;;
3133;SDS011;1577;49.912;10.924;2023-05-10T00:52:14;4.73;;;3.00;;
3133;SDS011;1577;49.912;10.924;2023-05-10T00:54:40;5.20;;;3.30;;
3133;SDS011;1577;49.912;10.924;2023-05-10T00:57:06;4.70;;;3.33;;
3133;SDS011;1577;49.912;10.924;2023-05-10T00:59:32;4.07;;;3.03;;
3133;SDS011;1577;49.912;10.924;2023-05-10T01:01:57;3.70;;;2.70;;
3133;SDS011;1577;49.912;10.924;2023-05-10T01:04:23;4.30;;;3.50;;
3133;SDS011;1577;49.912;10.924;2023-05-10T01:06:50;3.70;;;2.87;;
3133;SDS011;1577;49.912;10.924;2023-05-10T01:09:16;6.70;;;2.80;;
3133;SDS011;1577;49.912;10.924;2023-05-10T01:11:43;4.93;;;3.33;;
3133;SDS011;1577;49.912;10.924;2023-05-10T01:14:09;5.43;;;3.47;;
3133;SDS011;1577;49.912;10.924;2023-05-10T01:16:36;6.00;;;3.20;;
3133;SDS011;1577;49.912;10.924;2023-05-10T01:19:04;5.43;;;3.57;;
3133;SDS011;1577;49.912;10.924;2023-05-10T01:29:46;7.50;;;4.37;;
3133;SDS011;1577;49.912;10.924;2023-05-10T01:35:39;5.03;;;4.07;;
3133;SDS011;1577;49.912;10.924;2023-05-10T01:38:27;9.33;;;3.80;;
3133;SDS011;1577;49.912;10.924;2023-05-10T01:43:58;6.33;;;4.07;;
3133;SDS011;1577;49.912;10.924;2023-05-10T01:46:35;6.47;;;4.40;;
3133;SDS011;1577;49.912;10.924;2023-05-10T01:49:02;6.73;;;4.80;;
3133;SDS011;1577;49.912;10.924;2023-05-10T01:51:38;6.60;;;4.43;;
3133;SDS011;1577;49.912;10.924;2023-05-10T01:54:08;7.10;;;4.87;;
3133;SDS011;1577;49.912;10.924;2023-05-10T01:56:37;5.63;;;4.47;;
3133;SDS011;1577;49.912;10.924;2023-05-10T01:59:05;10.10;;;4.73;;
3133;SDS011;1577;49.912;10.924;2023-05-10T02:01:33;6.00;;;4.63;;
3133;SDS011;1577;49.912;10.924;2023-05-10T02:04:00;6.73;;;4.17;;
3133;SDS011;1577;49.912;10.924;2023-05-10T02:06:27;6.00;;;4.83;;
3133;SDS011;1577;49.912;10.924;2023-05-10T02:08:53;9.57;;;4.87;;
3133;SDS011;1577;49.912;10.924;2023-05-10T02:11:20;9.87;;;4.17;;
3133;SDS011;1577;49.912;10.924;2023-05-10T02:13:47;6.63;;;4.70;;
3133;SDS011;1577;49.912;10.924;2023-05-10T02:16:14;7.57;;;4.90;;
3133;SDS011;1577;49.912;10.924;2023-05-10T02:18:42;8.37;;;5.20;;
3133;SDS011;1577;49.912;10.924;2023-05-10T02:21:09;9.10;;;5.10;;
3133;SDS011;1577;49.912;10.924;2023-05-10T02:23:35;7.03;;;4.40;;
3133;SDS011;1577;49.912;10.924;2023-05-10T02:26:02;8.20;;;5.07;;
3133;SDS011;1577;49.912;10.924;2023-05-10T02:28:28;7.23;;;4.97;;
3133;SDS011;1577;49.912;10.924;2023-05-10T02:30:55;7.53;;;5.20;;
3133;SDS011;1577;49.912;10.924;2023-05-10T02:33:22;6.30;;;4.80;;
3133;SDS011;1577;49.912;10.924;2023-05-10T02:35:48;6.30;;;4.87;;
3133;SDS011;1577;49.912;10.924;2023-05-10T02:38:15;7.00;;;5.40;;
3133;SDS011;1577;49.912;10.924;2023-05-10T02:40:41;7.67;;;5.27;;
3133;SDS011;1577;49.912;10.924;2023-05-10T02:43:10;7.63;;;5.40;;
3133;SDS011;1577;49.912;10.924;2023-05-10T02:45:38;8.13;;;5.27;;
3133;SDS011;1577;49.912;10.924;2023-05-10T02:48:05;7.17;;;5.10;;
3133;SDS011;1577;49.912;10.924;2023-05-10T02:50:32;9.80;;;5.20;;
3133;SDS011;1577;49.912;10.924;2023-05-10T02:53:03;7.10;;;5.80;;
3133;SDS011;1577;49.912;10.924;2023-05-10T02:55:36;7.23;;;5.80;;
3133;SDS011;1577;49.912;10.924;2023-05-10T02:58:05;7.77;;;5.60;;
3133;SDS011;1577;49.912;10.924;2023-05-10T03:00:31;12.77;;;5.83;;
3133;SDS011;1577;49.912;10.924;2023-05-10T03:02:57;9.20;;;6.40;;
3133;SDS011;1577;49.912;10.924;2023-05-10T03:05:23;7.80;;;6.17;;
3133;SDS011;1577;49.912;10.924;2023-05-10T03:07:48;8.50;;;6.30;;
3133;SDS011;1577;49.912;10.924;2023-05-10T03:10:15;9.83;;;6.30;;
3133;SDS011;1577;49.912;10.924;2023-05-10T03:18:21;13.83;;;5.60;;
3133;SDS011;1577;49.912;10.924;2023-05-10T03:20:48;8.37;;;6.30;;
3133;SDS011;1577;49.912;10.924;2023-05-10T03:25:56;9.10;;;6.90;;
3133;SDS011;1577;49.912;10.924;2023-05-10T03:28:24;8.70;;;7.03;;
3133;SDS011;1577;49.912;10.924;2023-05-10T03:30:52;9.53;;;6.60;;
3133;SDS011;1577;49.912;10.924;2023-05-10T03:33:18;8.17;;;5.70;;
3133;SDS011;1577;49.912;10.924;2023-05-10T03:35:45;10.73;;;5.83;;
3133;SDS011;1577;49.912;10.924;2023-05-10T03:38:11;9.90;;;5.20;;
3133;SDS011;1577;49.912;10.924;2023-05-10T03:40:39;10.53;;;5.83;;
3133;SDS011;1577;49.912;10.924;2023-05-10T03:43:05;8.80;;;6.00;;
3133;SDS011;1577;49.912;10.924;2023-05-10T03:45:31;10.40;;;5.70;;
3133;SDS011;1577;49.912;10.924;2023-05-10T03:47:57;7.13;;;5.40;;
3133;SDS011;1577;49.912;10.924;2023-05-10T03:50:23;8.73;;;5.80;;
3133;SDS011;1577;49.912;10.924;2023-05-10T03:52:49;7.13;;;4.93;;
3133;SDS011;1577;49.912;10.924;2023-05-10T03:55:15;8.27;;;6.17;;
3133;SDS011;1577;49.912;10.924;2023-05-10T03:57:41;9.50;;;5.60;;
3133;SDS011;1577;49.912;10.924;2023-05-10T04:00:07;10.27;;;5.80;;
3133;SDS011;1577;49.912;10.924;2023-05-10T04:02:33;6.20;;;3.60;;
3133;SDS011;1577;49.912;10.924;2023-05-10T04:04:58;7.13;;;3.80;;
3133;SDS011;1577;49.912;10.924;2023-05-10T04:07:24;4.40;;;2.90;;
3133;SDS011;1577;49.912;10.924;2023-05-10T04:09:49;4.53;;;1.80;;
3133;SDS011;1577;49.912;10.924;2023-05-10T04:12:15;1.90;;;1.17;;
3133;SDS011;1577;49.912;10.924;2023-05-10T04:14:41;2.17;;;1.23;;
3133;SDS011;1577;49.912;10.924;2023-05-10T04:17:06;1.80;;;1.10;;
3133;SDS011;1577;49.912;10.924;2023-05-10T04:19:32;1.90;;;1.00;;
3133;SDS011;1577;49.912;10.924;2023-05-10T04:21:58;1.50;;;0.93;;
3133;SDS011;1577;49.912;10.924;2023-05-10T04:24:24;1.50;;;0.83;;
3133;SDS011;1577;49.912;10.924;2023-05-10T04:26:49;1.70;;;0.90;;
3133;SDS011;1577;49.912;10.924;2023-05-10T04:29:15;1.40;;;0.90;;
3133;SDS011;1577;49.912;10.924;2023-05-10T04:31:41;1.50;;;1.00;;
3133;SDS011;1577;49.912;10.924;2023-05-10T04:34:06;2.10;;;1.10;;
3133;SDS011;1577;49.912;10.924;2023-05-10T04:36:32;2.97;;;1.07;;
3133;SDS011;1577;49.912;10.924;2023-05-10T04:39:00;2.13;;;1.00;;
3133;SDS011;1577;49.912;10.924;2023-05-10T04:41:25;3.27;;;0.90;;
3133;SDS011;1577;49.912;10.924;2023-05-10T04:43:51;1.60;;;0.90;;
3133;SDS011;1577;49.912;10.924;2023-05-10T04:46:16;1.93;;;0.70;;
3133;SDS011;1577;49.912;10.924;2023-05-10T04:48:42;2.27;;;0.80;;
3133;SDS011;1577;49.912;10.924;2023-05-10T04:51:08;1.57;;;1.00;;
3133;SDS011;1577;49.912;10.924;2023-05-10T04:53:33;1.80;;;0.97;;
3133;SDS011;1577;49.912;10.924;2023-05-10T04:55:59;1.43;;;0.80;;
3133;SDS011;1577;49.912;10.924;2023-05-10T04:58:25;1.40;;;0.70;;
3133;SDS011;1577;49.912;10.924;2023-05-10T05:00:51;1.30;;;0.70;;
3133;SDS011;1577;49.912;10.924;2023-05-10T05:03:16;2.13;;;0.73;;
3133;SDS011;1577;49.912;10.924;2023-05-10T05:05:42;1.40;;;0.90;;
3133;SDS011;1577;49.912;10.924;2023-05-10T05:08:09;1.20;;;0.67;;
3133;SDS011;1577;49.912;10.924;2023-05-10T05:10:34;1.60;;;0.60;;
3133;SDS011;1577;49.912;10.924;2023-05-10T05:13:00;1.30;;;0.70;;
3133;SDS011;1577;49.912;10.924;2023-05-10T05:15:25;1.40;;;0.70;;
3133;SDS011;1577;49.912;10.924;2023-05-10T05:17:51;1.33;;;0.63;;
3133;SDS011;1577;49.912;10.924;2023-05-10T05:20:17;1.23;;;0.70;;
3133;SDS011;1577;49.912;10.924;2023-05-10T05:22:43;1.40;;;0.70;;
3133;SDS011;1577;49.912;10.924;2023-05-10T05:25:09;1.20;;;0.60;;
3133;SDS011;1577;49.912;10.924;2023-05-10T05:27:36;1.83;;;0.70;;
3133;SDS011;1577;49.912;10.924;2023-05-10T05:30:02;1.40;;;0.80;;
3133;SDS011;1577;49.912;10.924;2023-05-10T05:32:29;1.73;;;0.80;;
3133;SDS011;1577;49.912;10.924;2023-05-10T05:34:54;1.47;;;0.70;;
3133;SDS011;1577;49.912;10.924;2023-05-10T05:37:20;1.17;;;0.60;;
3133;SDS011;1577;49.912;10.924;2023-05-10T05:39:46;1.27;;;0.70;;
3133;SDS011;1577;49.912;10.924;2023-05-10T05:42:12;3.10;;;0.80;;
3133;SDS011;1577;49.912;10.924;2023-05-10T05:44:39;1.97;;;0.83;;
3133;SDS011;1577;49.912;10.924;2023-05-10T05:47:05;1.37;;;0.77;;
3133;SDS011;1577;49.912;10.924;2023-05-10T05:49:31;1.20;;;0.60;;
3133;SDS011;1577;49.912;10.924;2023-05-10T05:52:00;1.30;;;0.63;;
3133;SDS011;1577;49.912;10.924;2023-05-10T05:54:27;1.33;;;0.60;;
3133;SDS011;1577;49.912;10.924;2023-05-10T05:56:56;1.50;;;0.70;;
3133;SDS011;1577;49.912;10.924;2023-05-10T05:59:22;1.63;;;0.70;;
3133;SDS011;1577;49.912;10.924;2023-05-10T06:01:48;1.20;;;0.60;;
3133;SDS011;1577;49.912;10.924;2023-05-10T06:04:14;1.30;;;0.70;;
3133;SDS011;1577;49.912;10.924;2023-05-10T06:06:40;1.50;;;0.87;;
3133;SDS011;1577;49.912;10.924;2023-05-10T06:09:05;2.87;;;0.80;;
3133;SDS011;1577;49.912;10.924;2023-05-10T06:11:31;2.33;;;1.30;;
3133;SDS011;1577;49.912;10.924;2023-05-10T06:13:57;1.53;;;0.80;;
3133;SDS011;1577;49.912;10.924;2023-05-10T06:16:23;1.23;;;0.70;;
3133;SDS011;1577;49.912;10.924;2023-05-10T06:18:48;1.17;;;0.63;;
3133;SDS011;1577;49.912;10.924;2023-05-10T06:21:14;1.30;;;0.70;;
3133;SDS011;1577;49.912;10.924;2023-05-10T06:23:41;1.20;;;0.60;;
3133;SDS011;1577;49.912;10.924;2023-05-10T06:26:06;1.20;;;0.60;;
3133;SDS011;1577;49.912;10.924;2023-05-10T06:28:32;2.13;;;0.70;;
3133;SDS011;1577;49.912;10.924;2023-05-10T06:30:58;1.20;;;0.60;;
3133;SDS011;1577;49.912;10.924;2023-05-10T06:33:24;1.30;;;0.60;;
3133;SDS011;1577;49.912;10.924;2023-05-10T06:35:50;1.27;;;0.60;;
3133;SDS011;1577;49.912;10.924;2023-05-10T06:38:16;1.20;;;0.60;;
3133;SDS011;1577;49.912;10.924;2023-05-10T06:40:42;2.13;;;0.80;;
3133;SDS011;1577;49.912;10.924;2023-05-10T06:43:07;1.17;;;0.60;;
3133;SDS011;1577;49.912;10.924;2023-05-10T06:45:33;1.63;;;0.80;;
3133;SDS011;1577;49.912;10.924;2023-05-10T06:47:59;2.60;;;0.60;;
3133;SDS011;1577;49.912;10.924;2023-05-10T06:50:24;1.10;;;0.53;;
3133;SDS011;1577;49.912;10.924;2023-05-10T06:52:50;2.13;;;0.80;;
3133;SDS011;1577;49.912;10.924;2023-05-10T06:55:16;3.23;;;0.87;;
3133;SDS011;1577;49.912;10.924;2023-05-10T06:57:42;1.50;;;0.60;;
3133;SDS011;1577;49.912;10.924;2023-05-10T07:00:07;2.00;;;0.73;;
3133;SDS011;1577;49.912;10.924;2023-05-10T07:02:34;1.40;;;0.70;;
3133;SDS011;1577;49.912;10.924;2023-05-10T07:05:00;2.17;;;0.80;;
3133;SDS011;1577;49.912;10.924;2023-05-10T07:07:26;1.70;;;0.70;;
3133;SDS011;1577;49.912;10.924;2023-05-10T07:09:52;1.57;;;0.93;;
3133;SDS011;1577;49.912;10.924;2023-05-10T07:12:17;1.50;;;0.70;;
3133;SDS011;1577;49.912;10.924;2023-05-10T07:14:43;2.03;;;0.70;;
3133;SDS011;1577;49.912;10.924;2023-05-10T07:17:08;1.80;;;0.73;;
3133;SDS011;1577;49.912;10.924;2023-05-10T07:19:34;1.37;;;0.60;;
3133;SDS011;1577;49.912;10.924;2023-05-10T07:22:00;1.27;;;0.60;;
3133;SDS011;1577;49.912;10.924;2023-05-10T07:24:26;1.47;;;0.60;;
3133;SDS011;1577;49.912;10.924;2023-05-10T07:26:52;1.70;;;0.60;;
3133;SDS011;1577;49.912;10.924;2023-05-10T07:29:17;4.47;;;0.90;;
3133;SDS011;1577;49.912;10.924;2023-05-10T07:31:43;1.10;;;0.60;;
3133;SDS011;1577;49.912;10.924;2023-05-10T07:34:08;1.20;;;0.60;;
3133;SDS011;1577;49.912;10.924;2023-05-10T07:36:34;2.73;;;0.90;;
3133;SDS011;1577;49.912;10.924;2023-05-10T07:39:00;2.80;;;0.70;;
3133;SDS011;1577;49.912;10.924;2023-05-10T07:41:26;1.20;;;0.60;;
3133;SDS011;1577;49.912;10.924;2023-05-10T07:43:52;1.20;;;0.57;;
3133;SDS011;1577;49.912;10.924;2023-05-10T07:46:17;1.47;;;0.80;;
3133;SDS011;1577;49.912;10.924;2023-05-10T07:48:44;1.70;;;0.80;;
3133;SDS011;1577;49.912;10.924;2023-05-10T07:51:10;1.30;;;0.50;;
3133;SDS011;1577;49.912;10.924;2023-05-10T07:53:36;1.50;;;0.53;;
3133;SDS011;1577;49.912;10.924;2023-05-10T07:56:19;1.40;;;0.70;;
3133;SDS011;1577;49.912;10.924;2023-05-10T07:58:50;5.23;;;1.10;;
3133;SDS011;1577;49.912;10.924;2023-05-10T08:01:16;4.37;;;0.70;;
3133;SDS011;1577;49.912;10.924;2023-05-10T08:03:42;2.90;;;0.93;;
3133;SDS011;1577;49.912;10.924;2023-05-10T08:06:07;1.20;;;0.60;;
3133;SDS011;1577;49.912;10.924;2023-05-10T08:08:33;2.37;;;0.73;;
3133;SDS011;1577;49.912;10.924;2023-05-10T08:10:59;1.10;;;0.60;;
3133;SDS011;1577;49.912;10.924;2023-05-10T08:13:24;1.40;;;0.77;;
3133;SDS011;1577;49.912;10.924;2023-05-10T08:15:50;1.30;;;0.80;;
3133;SDS011;1577;49.912;10.924;2023-05-10T08:18:17;1.47;;;0.70;;
3133;SDS011;1577;49.912;10.924;2023-05-10T08:20:43;2.07;;;0.70;;
3133;SDS011;1577;49.912;10.924;2023-05-10T08:23:09;1.80;;;0.80;;
3133;SDS011;1577;49.912;10.924;2023-05-10T08:25:34;1.20;;;0.70;;
3133;SDS011;1577;49.912;10.924;2023-05-10T08:28:00;2.40;;;0.80;;
3133;SDS011;1577;49.912;10.924;2023-05-10T08:30:26;1.30;;;0.60;;
3133;SDS011;1577;49.912;10.924;2023-05-10T08:32:51;1.30;;;0.70;;
3133;SDS011;1577;49.912;10.924;2023-05-10T08:35:17;1.53;;;0.70;;
3133;SDS011;1577;49.912;10.924;2023-05-10T08:37:42;1.50;;;0.63;;
3133;SDS011;1577;49.912;10.924;2023-05-10T08:40:08;3.60;;;0.90;;
3133;SDS011;1577;49.912;10.924;2023-05-10T08:42:36;2.57;;;0.70;;
3133;SDS011;1577;49.912;10.924;2023-05-10T08:45:07;1.47;;;0.80;;
3133;SDS011;1577;49.912;10.924;2023-05-10T08:47:35;1.30;;;0.60;;
3133;SDS011;1577;49.912;10.924;2023-05-10T08:50:02;1.20;;;0.70;;
3133;SDS011;1577;49.912;10.924;2023-05-10T08:52:28;1.30;;;0.60;;
3133;SDS011;1577;49.912;10.924;2023-05-10T08:54:56;1.40;;;0.60;;
3133;SDS011;1577;49.912;10.924;2023-05-10T08:57:22;1.27;;;0.70;;
3133;SDS011;1577;49.912;10.924;2023-05-10T08:59:47;1.37;;;0.70;;
3133;SDS011;1577;49.912;10.924;2023-05-10T09:02:13;1.40;;;0.70;;
3133;SDS011;1577;49.912;10.924;2023-05-10T09:04:39;1.47;;;0.70;;
3133;SDS011;1577;49.912;10.924;2023-05-10T09:07:06;1.17;;;0.57;;
3133;SDS011;1577;49.912;10.924;2023-05-10T09:09:32;1.60;;;0.90;;
3133;SDS011;1577;49.912;10.924;2023-05-10T09:11:58;1.23;;;0.70;;
3133;SDS011;1577;49.912;10.924;2023-05-10T09:14:24;1.40;;;0.93;;
3133;SDS011;1577;49.912;10.924;2023-05-10T09:16:50;1.63;;;0.83;;
3133;SDS011;1577;49.912;10.924;2023-05-10T09:19:16;5.80;;;0.80;;
3133;SDS011;1577;49.912;10.924;2023-05-10T09:21:42;2.27;;;0.80;;
3133;SDS011;1577;49.912;10.924;2023-05-10T09:24:08;2.57;;;0.87;;
3133;SDS011;1577;49.912;10.924;2023-05-10T09:26:34;1.83;;;0.90;;
3133;SDS011;1577;49.912;10.924;2023-05-10T09:29:01;1.47;;;0.77;;
3133;SDS011;1577;49.912;10.924;2023-05-10T09:31:45;1.60;;;0.80;;
3133;SDS011;1577;49.912;10.924;2023-05-10T09:34:28;1.33;;;0.87;;
3133;SDS011;1577;49.912;10.924;2023-05-10T09:36:58;2.30;;;0.70;;
3133;SDS011;1577;49.912;10.924;2023-05-10T09:39:35;2.07;;;1.00;;
3133;SDS011;1577;49.912;10.924;2023-05-10T09:42:07;1.17;;;0.70;;
3133;SDS011;1577;49.912;10.924;2023-05-10T09:44:34;4.33;;;0.90;;
3133;SDS011;1577;49.912;10.924;2023-05-10T09:47:00;1.53;;;0.90;;
3133;SDS011;1577;49.912;10.924;2023-05-10T09:49:26;1.40;;;0.80;;
3133;SDS011;1577;49.912;10.924;2023-05-10T09:52:13;2.27;;;1.00;;
3133;SDS011;1577;49.912;10.924;2023-05-10T09:54:38;1.53;;;0.73;;
3133;SDS011;1577;49.912;10.924;2023-05-10T09:57:20;2.07;;;1.00;;
3133;SDS011;1577;49.912;10.924;2023-05-10T09:59:47;1.70;;;1.00;;
3133;SDS011;1577;49.912;10.924;2023-05-10T10:02:13;1.30;;;0.70;;
3133;SDS011;1577;49.912;10.924;2023-05-10T10:04:39;1.53;;;0.90;;
3133;SDS011;1577;49.912;10.924;2023-05-10T10:07:05;6.40;;;1.07;;
3133;SDS011;1577;49.912;10.924;2023-05-10T10:09:32;4.50;;;1.10;;
3133;SDS011;1577;49.912;10.924;2023-05-10T10:11:59;2.97;;;1.07;;
3133;SDS011;1577;49.912;10.924;2023-05-10T10:14:26;2.73;;;0.90;;
3133;SDS011;1577;49.912;10.924;2023-05-10T10:16:53;1.97;;;0.90;;
3133;SDS011;1577;49.912;10.924;2023-05-10T10:19:19;1.30;;;0.90;;
3133;SDS011;1577;49.912;10.924;2023-05-10T10:21:45;1.70;;;0.90;;
3133;SDS011;1577;49.912;10.924;2023-05-10T10:24:11;2.60;;;0.90;;
3133;SDS011;1577;49.912;10.924;2023-05-10T10:26:37;1.40;;;0.90;;
3133;SDS011;1577;49.912;10.924;2023-05-10T10:36:55;1.77;;;0.73;;
3133;SDS011;1577;49.912;10.924;2023-05-10T10:39:21;3.53;;;0.70;;
3133;SDS011;1577;49.912;10.924;2023-05-10T10:41:50;4.73;;;0.93;;
3133;SDS011;1577;49.912;10.924;2023-05-10T10:47:05;2.13;;;0.80;;
3133;SDS011;1577;49.912;10.924;2023-05-10T10:49:50;4.00;;;1.00;;
3133;SDS011;1577;49.912;10.924;2023-05-10T10:54:49;2.83;;;0.97;;
3133;SDS011;1577;49.912;10.924;2023-05-10T10:57:17;4.40;;;1.13;;
3133;SDS011;1577;49.912;10.924;2023-05-10T10:59:43;2.10;;;1.00;;
3133;SDS011;1577;49.912;10.924;2023-05-10T11:02:10;2.00;;;0.83;;
3133;SDS011;1577;49.912;10.924;2023-05-10T11:04:55;1.33;;;0.70;;
3133;SDS011;1577;49.912;10.924;2023-05-10T11:07:24;2.20;;;0.80;;
3133;SDS011;1577;49.912;10.924;2023-05-10T11:09:49;3.70;;;2.20;;
3133;SDS011;1577;49.912;10.924;2023-05-10T11:12:16;1.97;;;0.87;;
3133;SDS011;1577;49.912;10.924;2023-05-10T11:14:42;1.97;;;1.10;;
3133;SDS011;1577;49.912;10.924;2023-05-10T11:17:23;1.97;;;0.90;;
3133;SDS011;1577;49.912;10.924;2023-05-10T11:20:06;3.67;;;1.07;;
3133;SDS011;1577;49.912;10.924;2023-05-10T11:22:50;1.93;;;0.60;;
3133;SDS011;1577;49.912;10.924;2023-05-10T11:25:17;2.50;;;0.90;;
3133;SDS011;1577;49.912;10.924;2023-05-10T11:27:42;1.50;;;0.70;;
3133;SDS011;1577;49.912;10.924;2023-05-10T11:30:11;1.40;;;0.77;;
3133;SDS011;1577;49.912;10.924;2023-05-10T11:32:38;1.60;;;0.80;;
3133;SDS011;1577;49.912;10.924;2023-05-10T11:35:07;2.20;;;0.80;;
3133;SDS011;1577;49.912;10.924;2023-05-10T11:37:36;1.30;;;0.70;;
3133;SDS011;1577;49.912;10.924;2023-05-10T11:40:07;2.67;;;0.90;;
3133;SDS011;1577;49.912;10.924;2023-05-10T11:42:35;1.47;;;0.70;;
3133;SDS011;1577;49.912;10.924;2023-05-10T11:45:04;1.10;;;0.60;;
3133;SDS011;1577;49.912;10.924;2023-05-10T11:47:30;6.20;;;0.90;;
3133;SDS011;1577;49.912;10.924;2023-05-10T11:49:56;6.20;;;1.00;;
3133;SDS011;1577;49.912;10.924;2023-05-10T11:52:23;3.53;;;0.90;;
3133;SDS011;1577;49.912;10.924;2023-05-10T11:54:52;3.00;;;0.90;;
3133;SDS011;1577;49.912;10.924;2023-05-10T11:57:19;2.17;;;0.70;;
3133;SDS011;1577;49.912;10.924;2023-05-10T11:59:51;1.70;;;0.80;;
3133;SDS011;1577;49.912;10.924;2023-05-10T12:02:18;1.70;;;0.90;;
3133;SDS011;1577;49.912;10.924;2023-05-10T12:04:44;1.30;;;0.70;;
3133;SDS011;1577;49.912;10.924;2023-05-10T12:07:10;3.83;;;0.90;;
3133;SDS011;1577;49.912;10.924;2023-05-10T12:09:35;1.70;;;0.87;;
3133;SDS011;1577;49.912;10.924;2023-05-10T12:12:01;2.33;;;0.77;;
3133;SDS011;1577;49.912;10.924;2023-05-10T12:14:27;2.13;;;1.30;;
3133;SDS011;1577;49.912;10.924;2023-05-10T12:16:58;3.40;;;1.17;;
3133;SDS011;1577;49.912;10.924;2023-05-10T12:19:24;2.80;;;1.13;;
3133;SDS011;1577;49.912;10.924;2023-05-10T12:21:50;3.13;;;1.00;;
3133;SDS011;1577;49.912;10.924;2023-05-10T12:24:15;1.53;;;0.93;;
3133;SDS011;1577;49.912;10.924;2023-05-10T12:26:43;3.87;;;1.00;;
3133;SDS011;1577;49.912;10.924;2023-05-10T12:31:50;1.57;;;0.87;;
3133;SDS011;1577;49.912;10.924;2023-05-10T12:34:32;1.90;;;0.90;;
3133;SDS011;1577;49.912;10.924;2023-05-10T12:37:00;1.60;;;0.90;;
3133;SDS011;1577;49.912;10.924;2023-05-10T12:39:40;1.77;;;0.90;;
3133;SDS011;1577;49.912;10.924;2023-05-10T12:42:07;1.90;;;1.13;;
3133;SDS011;1577;49.912;10.924;2023-05-10T12:44:33;5.03;;;1.43;;
3133;SDS011;1577;49.912;10.924;2023-05-10T12:46:59;4.00;;;1.30;;
3133;SDS011;1577;49.912;10.924;2023-05-10T12:49:25;2.17;;;1.27;;
3133;SDS011;1577;49.912;10.924;2023-05-10T12:51:50;4.10;;;1.43;;
3133;SDS011;1577;49.912;10.924;2023-05-10T12:54:16;1.97;;;0.77;;
3133;SDS011;1577;49.912;10.924;2023-05-10T12:56:41;4.90;;;0.90;;
3133;SDS011;1577;49.912;10.924;2023-05-10T12:59:10;3.00;;;1.37;;
3133;SDS011;1577;49.912;10.924;2023-05-10T13:01:36;2.57;;;1.00;;
3133;SDS011;1577;49.912;10.924;2023-05-10T13:04:01;2.93;;;1.10;;
3133;SDS011;1577;49.912;10.924;2023-05-10T13:06:27;1.37;;;0.80;;
3133;SDS011;1577;49.912;10.924;2023-05-10T13:08:52;1.10;;;0.70;;
3133;SDS011;1577;49.912;10.924;2023-05-10T13:11:18;1.20;;;0.60;;
3133;SDS011;1577;49.912;10.924;2023-05-10T13:13:44;2.10;;;0.70;;
3133;SDS011;1577;49.912;10.924;2023-05-10T13:16:10;1.47;;;0.70;;
3133;SDS011;1577;49.912;10.924;2023-05-10T13:18:36;2.53;;;0.60;;
3133;SDS011;1577;49.912;10.924;2023-05-10T13:21:01;2.13;;;0.70;;
3133;SDS011;1577;49.912;10.924;2023-05-10T13:23:28;3.50;;;0.90;;
3133;SDS011;1577;49.912;10.924;2023-05-10T13:25:54;5.63;;;0.90;;
3133;SDS011;1577;49.912;10.924;2023-05-10T13:28:20;2.80;;;1.43;;
3133;SDS011;1577;49.912;10.924;2023-05-10T13:30:45;3.10;;;1.10;;
3133;SDS011;1577;49.912;10.924;2023-05-10T13:33:11;1.10;;;0.60;;
3133;SDS011;1577;49.912;10.924;2023-05-10T13:35:37;1.30;;;0.70;;
3133;SDS011;1577;49.912;10.924;2023-05-10T13:38:02;1.37;;;0.70;;
3133;SDS011;1577;49.912;10.924;2023-05-10T13:40:28;1.30;;;0.70;;
3133;SDS011;1577;49.912;10.924;2023-05-10T13:42:53;1.70;;;0.70;;
3133;SDS011;1577;49.912;10.924;2023-05-10T13:45:19;3.37;;;0.80;;
3133;SDS011;1577;49.912;10.924;2023-05-10T13:47:45;2.93;;;0.70;;
3133;SDS011;1577;49.912;10.924;2023-05-10T13:50:10;3.13;;;0.73;;
3133;SDS011;1577;49.912;10.924;2023-05-10T13:52:36;2.17;;;0.80;;
3133;SDS011;1577;49.912;10.924;2023-05-10T13:55:02;1.50;;;0.70;;
3133;SDS011;1577;49.912;10.924;2023-05-10T13:57:30;1.90;;;0.83;;
3133;SDS011;1577;49.912;10.924;2023-05-10T13:59:56;4.30;;;1.20;;
3133;SDS011;1577;49.912;10.924;2023-05-10T14:02:22;3.50;;;0.80;;
3133;SDS011;1577;49.912;10.924;2023-05-10T14:04:48;1.97;;;1.00;;
3133;SDS011;1577;49.912;10.924;2023-05-10T14:07:13;2.40;;;0.90;;
3133;SDS011;1577;49.912;10.924;2023-05-10T14:09:39;1.40;;;0.80;;
3133;SDS011;1577;49.912;10.924;2023-05-10T14:12:04;2.37;;;1.20;;
3133;SDS011;1577;49.912;10.924;2023-05-10T14:14:30;3.53;;;1.50;;
3133;SDS011;1577;49.912;10.924;2023-05-10T14:16:56;1.90;;;1.10;;
3133;SDS011;1577;49.912;10.924;2023-05-10T14:19:21;1.80;;;1.30;;
3133;SDS011;1577;49.912;10.924;2023-05-10T14:21:47;2.13;;;1.00;;
3133;SDS011;1577;49.912;10.924;2023-05-10T14:24:13;1.70;;;1.00;;
3133;SDS011;1577;49.912;10.924;2023-05-10T14:26:38;5.17;;;1.20;;
3133;SDS011;1577;49.912;10.924;2023-05-10T14:29:04;3.10;;;1.60;;
3133;SDS011;1577;49.912;10.924;2023-05-10T14:31:29;1.63;;;1.17;;
3133;SDS011;1577;49.912;10.924;2023-05-10T14:33:55;1.60;;;1.10;;
3133;SDS011;1577;49.912;10.924;2023-05-10T14:36:22;2.30;;;1.30;;
3133;SDS011;1577;49.912;10.924;2023-05-10T14:38:48;1.83;;;1.10;;
3133;SDS011;1577;49.912;10.924;2023-05-10T14:41:15;1.80;;;1.10;;
3133;SDS011;1577;49.912;10.924;2023-05-10T14:43:42;2.90;;;1.40;;
3133;SDS011;1577;49.912;10.924;2023-05-10T14:46:08;2.00;;;1.20;;
3133;SDS011;1577;49.912;10.924;2023-05-10T14:48:33;2.40;;;1.37;;
3133;SDS011;1577;49.912;10.924;2023-05-10T14:50:59;1.50;;;1.00;;
3133;SDS011;1577;49.912;10.924;2023-05-10T14:53:25;5.20;;;1.87;;
3133;SDS011;1577;49.912;10.924;2023-05-10T14:55:51;2.03;;;1.07;;
3133;SDS011;1577;49.912;10.924;2023-05-10T14:58:17;1.70;;;1.20;;
3133;SDS011;1577;49.912;10.924;2023-05-10T15:00:42;3.30;;;1.27;;
3133;SDS011;1577;49.912;10.924;2023-05-10T15:03:08;1.80;;;1.10;;
3133;SDS011;1577;49.912;10.924;2023-05-10T15:05:34;4.50;;;1.13;;
3133;SDS011;1577;49.912;10.924;2023-05-10T15:08:02;3.00;;;1.10;;
3133;SDS011;1577;49.912;10.924;2023-05-10T15:10:27;1.70;;;0.90;;
3133;SDS011;1577;49.912;10.924;2023-05-10T15:12:53;2.80;;;1.10;;
3133;SDS011;1577;49.912;10.924;2023-05-10T15:15:18;2.80;;;1.13;;
3133;SDS011;1577;49.912;10.924;2023-05-10T15:17:44;2.73;;;1.00;;
3133;SDS011;1577;49.912;10.924;2023-05-10T15:20:10;1.60;;;1.00;;
3133;SDS011;1577;49.912;10.924;2023-05-10T15:22:36;3.10;;;1.10;;
3133;SDS011;1577;49.912;10.924;2023-05-10T15:25:03;1.90;;;0.80;;
3133;SDS011;1577;49.912;10.924;2023-05-10T15:27:29;4.17;;;0.80;;
3133;SDS011;1577;49.912;10.924;2023-05-10T15:29:54;1.80;;;0.70;;
3133;SDS011;1577;49.912;10.924;2023-05-10T15:32:20;1.77;;;0.70;;
3133;SDS011;1577;49.912;10.924;2023-05-10T15:34:46;1.40;;;0.80;;
3133;SDS011;1577;49.912;10.924;2023-05-10T15:37:12;3.37;;;0.90;;